Friday, July 20, 2018, 4:53 AM EDT
Back to Local

KRMN, Stafford, Stafford Regional Airport

Location: Fredericksburg, VA, United States Lat: 38.398
Local Time: 4:53 AM EDT ( 8:53 GMT) Lon: -77.455
Time Zone: US/Eastern Elev: 213 ft

Show me the last for .
Show Decoded

2018-07-20 04:35 METAR KRMN 200835Z AUTO 00000KT 10SM BKN070 16/16 A3014 RMK AO2 T01580158 =
2018-07-20 04:15 METAR KRMN 200815Z AUTO 00000KT 10SM SCT070 16/16 A3014 RMK AO2 T01630163 =
2018-07-20 03:55 METAR KRMN 200755Z AUTO 00000KT 10SM SCT070 16/16 A3014 RMK AO2 T01580158 =
2018-07-20 03:35 METAR KRMN 200735Z AUTO 00000KT 10SM SCT070 17/17 A3014 RMK AO2 T01650165 =
2018-07-20 03:15 METAR KRMN 200715Z AUTO 00000KT 10SM CLR 16/16 A3013 RMK AO2 T01630163 =
2018-07-20 02:55 METAR KRMN 200655Z AUTO 00000KT 10SM CLR 16/16 A3013 RMK AO2 T01630163 =
2018-07-20 02:35 METAR KRMN 200635Z AUTO 00000KT 10SM CLR 16/16 A3013 RMK AO2 T01640164 =
2018-07-20 02:15 METAR KRMN 200615Z AUTO 00000KT 10SM CLR 17/17 A3013 RMK AO2 T01650165 =
2018-07-20 01:55 METAR KRMN 200555Z AUTO 00000KT 10SM CLR 16/16 A3013 RMK AO2 T01640164 10270
                 20164 403180155 =
2018-07-20 01:35 METAR KRMN 200535Z AUTO 00000KT 10SM CLR 17/17 A3014 RMK AO2 T01730173 =
2018-07-20 01:15 METAR KRMN 200515Z AUTO 00000KT 10SM CLR 17/17 A3014 RMK AO2 T01720172 =
2018-07-20 00:55 METAR KRMN 200455Z AUTO 00000KT 10SM CLR 17/17 A3014 RMK AO2 T01730173 =
2018-07-20 00:35 METAR KRMN 200435Z AUTO 00000KT 10SM CLR 18/18 A3015 RMK AO2 T01750175 =
2018-07-20 00:15 METAR KRMN 200415Z AUTO 00000KT 10SM CLR 18/18 A3014 RMK AO2 T01750175 =
2018-07-19 23:55 METAR KRMN 200355Z AUTO 00000KT 10SM CLR 18/18 A3014 RMK AO2 T01770177 =
2018-07-19 23:35 METAR KRMN 200335Z AUTO 00000KT 10SM CLR 18/18 A3014 RMK AO2 T01820182 =
2018-07-19 23:15 METAR KRMN 200315Z AUTO 00000KT 10SM CLR 19/19 A3014 RMK AO2 T01850185 =
2018-07-19 22:55 METAR KRMN 200255Z AUTO 00000KT 10SM CLR 19/19 A3014 RMK AO2 T01920192 =
2018-07-19 22:35 METAR KRMN 200235Z AUTO 00000KT 10SM CLR 19/19 A3013 RMK AO2 T01920192 =
2018-07-19 22:15 METAR KRMN 200215Z AUTO 00000KT 10SM CLR 20/20 A3013 RMK AO2 T02020197 =
2018-07-19 21:55 METAR KRMN 200155Z AUTO 00000KT 10SM CLR 20/20 A3012 RMK AO2 T01980198 =
2018-07-19 21:35 METAR KRMN 200135Z AUTO 08003KT 10SM CLR 21/20 A3012 RMK AO2 T02070200 =
2018-07-19 21:15 METAR KRMN 200115Z AUTO 00000KT 10SM CLR 21/20 A3011 RMK AO2 T02090202 =
2018-07-19 20:55 METAR KRMN 200055Z AUTO 00000KT 10SM CLR 22/20 A3010 RMK AO2 T02170198 =
2018-07-19 20:35 METAR KRMN 200035Z AUTO 00000KT 10SM CLR 23/19 A3010 RMK AO2 T02300188 =
2018-07-19 20:15 METAR KRMN 200015Z AUTO 00000KT 10SM CLR 24/18 A3009 RMK AO2 T02430180 =
2018-07-19 19:55 METAR KRMN 192355Z AUTO 10005KT 10SM SCT070 27/17 A3009 RMK AO2 T02700167 10318
                 20270 =
2018-07-19 19:35 METAR KRMN 192335Z AUTO 10005KT 10SM SCT070 28/16 A3009 RMK AO2 T02750162 =
2018-07-19 19:15 METAR KRMN 192315Z AUTO 10005KT 10SM CLR 28/16 A3009 RMK AO2 T02820155 =
2018-07-19 18:55 METAR KRMN 192255Z AUTO 09004KT 10SM CLR 29/15 A3009 RMK AO2 T02900150 =
2018-07-19 18:35 METAR KRMN 192235Z AUTO 08007KT 10SM SCT070 29/14 A3009 RMK AO2 T02900141 =
2018-07-19 18:15 METAR KRMN 192215Z AUTO 08005KT 10SM SCT070 29/14 A3009 RMK AO2 T02900139 =
2018-07-19 17:55 METAR KRMN 192155Z AUTO 06005KT 10SM SCT060 30/14 A3009 RMK AO2 T02980141 =
2018-07-19 17:35 METAR KRMN 192135Z AUTO 11007KT 10SM SCT060 30/13 A3009 RMK AO2 T03000134 =
2018-07-19 17:15 METAR KRMN 192115Z AUTO 00000KT 10SM SCT060 30/14 A3010 RMK AO2 T02950137 =
2018-07-19 16:55 METAR KRMN 192055Z AUTO 00000KT 10SM SCT060 30/13 A3010 RMK AO2 T03020134 =
2018-07-19 16:35 METAR KRMN 192035Z AUTO 09006KT 10SM SCT065 30/13 A3010 RMK AO2 T03030132 =
2018-07-19 16:15 METAR KRMN 192015Z AUTO 08006KT 10SM SCT065 31/13 A3010 RMK AO2 T03060128 =
2018-07-19 15:55 METAR KRMN 191955Z AUTO 11006KT 10SM SCT065 32/12 A3011 RMK AO2 T03150124 =
2018-07-19 15:35 METAR KRMN 191935Z AUTO 11008KT 10SM CLR 31/13 A3011 RMK AO2 T03120126 =
2018-07-19 15:15 METAR KRMN 191915Z AUTO 12005KT 10SM CLR 31/12 A3011 RMK AO2 T03140123 =
2018-07-19 14:55 METAR KRMN 191855Z AUTO 11004KT 10SM CLR 31/12 A3012 RMK AO2 T03080124 =
2018-07-19 14:35 METAR KRMN 191835Z AUTO 02005KT 10SM CLR 31/13 A3012 RMK AO2 T03100128 =
2018-07-19 14:15 METAR KRMN 191815Z AUTO 02006KT 10SM CLR 30/14 A3012 RMK AO2 T02970143 =
2018-07-19 13:55 METAR KRMN 191755Z AUTO 00000KT 10SM SCT060 29/14 A3013 RMK AO2 T02900135 10307
                 20222 =
2018-07-19 13:35 METAR KRMN 191735Z AUTO 11006KT 10SM CLR 30/14 A3013 RMK AO2 T03010137 =
2018-07-19 13:15 METAR KRMN 191715Z AUTO 06005KT 10SM CLR 30/14 A3014 RMK AO2 T03030135 =
2018-07-19 12:55 METAR KRMN 191655Z AUTO 10006KT 10SM CLR 29/15 A3014 RMK AO2 T02930151 =
2018-07-19 12:35 METAR KRMN 191635Z AUTO 07004KT 10SM CLR 29/16 A3015 RMK AO2 T02890162 =
2018-07-19 12:15 METAR KRMN 191615Z AUTO 06003KT 10SM CLR 28/16 A3015 RMK AO2 T02750160 =
2018-07-19 11:55 METAR KRMN 191555Z AUTO 05005KT 10SM CLR 28/16 A3015 RMK AO2 T02810157 =
2018-07-19 11:35 METAR KRMN 191535Z AUTO 07004KT 10SM CLR 28/16 A3015 RMK AO2 T02790157 =
2018-07-19 11:15 METAR KRMN 191515Z AUTO 11006KT 10SM CLR 28/16 A3015 RMK AO2 T02800159 =
2018-07-19 10:55 METAR KRMN 191455Z AUTO 05004KT 10SM CLR 28/16 A3015 RMK AO2 T02790162 =
2018-07-19 10:35 METAR KRMN 191435Z AUTO 09008KT 10SM CLR 27/16 A3015 RMK AO2 T02720157 =
2018-07-19 10:15 METAR KRMN 191415Z AUTO 06006KT 10SM CLR 27/16 A3015 RMK AO2 T02690158 =
2018-07-19 09:55 METAR KRMN 191355Z AUTO 09007KT 10SM CLR 27/15 A3015 RMK AO2 T02690154 =
2018-07-19 09:35 METAR KRMN 191335Z AUTO 04006KT 10SM CLR 26/16 A3014 RMK AO2 T02570164 =
2018-07-19 09:15 METAR KRMN 191315Z AUTO 03006KT 10SM CLR 25/17 A3014 RMK AO2 T02510167 =
2018-07-19 08:55 METAR KRMN 191255Z AUTO 05004KT 10SM SCT075 24/17 A3014 RMK AO2 T02440168 =
2018-07-19 08:35 METAR KRMN 191235Z AUTO 03006KT 10SM CLR 24/17 A3013 RMK AO2 T02380172 =
2018-07-19 08:15 METAR KRMN 191215Z AUTO 03005KT 10SM CLR 23/17 A3013 RMK AO2 T02310171 =
2018-07-19 07:55 METAR KRMN 191155Z AUTO 04004KT 10SM SCT080 22/19 A3012 RMK AO2 T02170188 10217
                 20155 =
2018-07-19 07:35 METAR KRMN 191135Z AUTO 00000KT 10SM BKN080 19/19 A3012 RMK AO2 T01850185 =
2018-07-19 07:15 METAR KRMN 191115Z AUTO 00000KT 10SM BKN080 18/18 A3011 RMK AO2 T01820182 =
2018-07-19 06:55 METAR KRMN 191055Z AUTO 00000KT 10SM SCT080 17/17 A3010 RMK AO2 T01650165 =
2018-07-19 06:35 METAR KRMN 191035Z AUTO 36003KT 10SM CLR 18/17 A3010 RMK AO2 T01770174 =
2018-07-19 06:15 METAR KRMN 191015Z AUTO 00000KT 10SM SCT080 16/16 A3009 RMK AO2 T01550155 =
2018-07-19 05:55 METAR KRMN 190955Z AUTO 00000KT 10SM BKN080 16/16 A3009 RMK AO2 T01630163 =
2018-07-19 05:35 METAR KRMN 190935Z AUTO 00000KT 10SM OVC080 17/17 A3008 RMK AO2 T01690169 =
2018-07-19 05:15 METAR KRMN 190915Z AUTO 00000KT 10SM BKN080 16/16 A3008 RMK AO2 T01620162 =
2018-07-19 04:55 METAR KRMN 190855Z AUTO 29003KT 10SM BKN075 17/17 A3008 RMK AO2 T01650165 =

Support USWX by starting your Amazon purchase here.